createdAt,value
2023-05-21T00:04:40.876Z,13.06
2023-05-21T00:09:41.787Z,12.93
2023-05-21T00:14:42.508Z,12.94
2023-05-21T00:19:44.787Z,12.90
2023-05-21T00:24:45.942Z,12.84
2023-05-21T00:29:46.621Z,12.79
2023-05-21T00:34:49.068Z,12.79
2023-05-21T00:39:49.729Z,12.72
2023-05-21T00:44:50.463Z,12.65
2023-05-21T00:49:53.398Z,12.62
2023-05-21T00:54:54.720Z,12.60
2023-05-21T00:59:55.522Z,12.58
2023-05-21T01:04:57.523Z,12.54
2023-05-21T01:09:58.248Z,12.51
2023-05-21T01:15:00.370Z,12.53
2023-05-21T01:20:04.440Z,12.48
2023-05-21T01:25:08.470Z,12.42
2023-05-21T01:30:10.200Z,12.45
2023-05-21T01:35:15.018Z,12.44
2023-05-21T01:40:24.499Z,12.41
2023-05-21T01:45:28.314Z,12.36
2023-05-21T01:50:31.910Z,12.34
2023-05-21T01:55:34.687Z,12.30
2023-05-21T02:00:35.562Z,12.30
2023-05-21T02:05:36.683Z,12.31
2023-05-21T02:10:40.003Z,12.28
2023-05-21T02:15:40.717Z,12.27
2023-05-21T02:20:41.436Z,12.24
2023-05-21T02:25:44.025Z,12.21
2023-05-21T02:30:44.755Z,12.15
2023-05-21T02:35:45.920Z,12.14
2023-05-21T02:40:48.843Z,12.01
2023-05-21T02:45:51.438Z,11.95
2023-05-21T02:50:52.787Z,11.93
2023-05-21T02:55:54.855Z,11.84
2023-05-21T03:00:55.664Z,11.81
2023-05-21T03:05:56.475Z,11.77
2023-05-21T03:10:58.530Z,11.74
2023-05-21T03:15:59.549Z,11.79
2023-05-21T03:21:00.317Z,11.81
2023-05-21T03:26:02.411Z,11.81
2023-05-21T03:31:03.350Z,11.85
2023-05-21T03:36:21.665Z,11.87
2023-05-21T03:41:23.866Z,11.93
2023-05-21T03:46:29.974Z,11.95
2023-05-21T03:51:43.478Z,12.08
2023-05-21T03:56:49.479Z,12.14
2023-05-21T04:01:50.401Z,12.24
2023-05-21T04:06:54.278Z,12.39
2023-05-21T04:11:57.929Z,12.53
2023-05-21T04:16:58.626Z,12.68
2023-05-21T04:21:59.378Z,12.84
2023-05-21T04:27:01.766Z,13.06
2023-05-21T04:32:05.165Z,13.18
2023-05-21T04:37:06.900Z,13.42
2023-05-21T04:42:11.013Z,13.62
2023-05-21T04:47:12.366Z,13.85
2023-05-21T04:52:13.574Z,14.03
2023-05-21T04:57:15.635Z,14.29
2023-05-21T05:02:16.337Z,14.55
2023-05-21T05:07:17.325Z,14.87
2023-05-21T05:12:19.392Z,15.22
2023-05-21T05:17:20.100Z,15.50
2023-05-21T05:22:20.928Z,15.89
2023-05-21T05:27:23.087Z,16.22
2023-05-21T05:32:23.896Z,16.55
2023-05-21T05:37:24.803Z,16.91
2023-05-21T05:42:27.004Z,17.00
2023-05-21T05:47:28.313Z,17.53
2023-05-21T05:52:29.381Z,17.85
2023-05-21T05:57:31.432Z,18.16
2023-05-21T06:02:36.725Z,18.52
2023-05-21T06:07:38.998Z,18.91
2023-05-21T06:12:41.195Z,19.34
2023-05-21T06:17:42.753Z,19.68
2023-05-21T06:22:45.908Z,19.96
2023-05-21T06:27:48.060Z,20.22
2023-05-21T06:32:54.338Z,20.55
2023-05-21T06:37:55.393Z,20.77
2023-05-21T06:42:59.774Z,21.13
2023-05-21T06:48:19.158Z,21.24
2023-05-21T06:53:21.721Z,21.37
2023-05-21T06:58:24.165Z,21.48
2023-05-21T07:03:25.492Z,21.47
2023-05-21T07:08:26.490Z,21.68
2023-05-21T07:13:28.868Z,21.68
2023-05-21T07:18:29.811Z,21.80
2023-05-21T07:23:30.626Z,21.87
2023-05-21T07:28:32.791Z,22.09
2023-05-21T07:33:34.654Z,22.18
2023-05-21T07:38:35.558Z,22.33
2023-05-21T07:43:38.151Z,22.57
2023-05-21T07:48:39.138Z,22.87
2023-05-21T07:53:41.690Z,23.06
2023-05-21T07:58:47.379Z,23.19
2023-05-21T08:03:49.821Z,23.28
2023-05-21T08:08:50.877Z,23.27
2023-05-21T08:13:53.632Z,23.35
2023-05-21T08:18:55.408Z,23.38
2023-05-21T08:23:56.206Z,23.09
2023-05-21T08:28:58.353Z,23.04
2023-05-21T08:33:59.121Z,23.23
2023-05-21T08:39:12.642Z,23.45
2023-05-21T08:44:21.737Z,23.32
2023-05-21T08:49:27.141Z,23.50
2023-05-21T08:54:29.650Z,23.52
2023-05-21T08:59:31.943Z,23.38
2023-05-21T09:04:33.958Z,23.33
2023-05-21T09:09:40.784Z,23.26
2023-05-21T09:14:44.489Z,23.38
2023-05-21T09:20:09.721Z,23.53
2023-05-21T09:25:12.349Z,23.62
2023-05-21T09:30:17.263Z,23.78
2023-05-21T09:35:18.036Z,24.06
2023-05-21T09:40:20.449Z,24.29
2023-05-21T09:45:24.750Z,24.38
2023-05-21T09:50:28.663Z,24.50
2023-05-21T09:55:29.889Z,24.75
2023-05-21T10:00:32.834Z,24.90
2023-05-21T10:05:34.483Z,25.10
2023-05-21T10:10:38.289Z,25.25
2023-05-21T10:15:45.140Z,25.50
2023-05-21T10:20:47.555Z,25.79
2023-05-21T10:25:50.397Z,26.12
2023-05-21T10:30:53.591Z,25.89
2023-05-21T10:35:59.346Z,26.03
2023-05-21T10:41:01.984Z,26.16
2023-05-21T10:46:25.804Z,25.58
2023-05-21T10:51:29.120Z,25.40
2023-05-21T10:56:37.518Z,25.45
2023-05-21T11:01:42.234Z,26.26
2023-05-21T11:06:48.233Z,26.08
2023-05-21T11:11:52.369Z,26.26
2023-05-21T11:16:54.708Z,26.40
2023-05-21T11:21:56.712Z,25.83
2023-05-21T11:27:05.793Z,26.02
2023-05-21T11:32:10.263Z,26.07
2023-05-21T11:37:31.486Z,26.32
2023-05-21T11:42:34.114Z,26.36
2023-05-21T11:47:36.442Z,26.47
2023-05-21T11:52:37.317Z,26.42
2023-05-21T11:57:39.063Z,26.45
2023-05-21T12:02:45.844Z,26.55
2023-05-21T12:07:50.714Z,26.77
2023-05-21T12:12:56.237Z,26.73
2023-05-21T12:17:59.620Z,25.84
2023-05-21T12:23:00.877Z,25.93
2023-05-21T12:28:05.468Z,26.07
2023-05-21T12:33:07.532Z,26.69
2023-05-21T12:38:09.759Z,26.56
2023-05-21T12:43:10.496Z,26.72
2023-05-21T12:48:12.687Z,27.18
2023-05-21T12:53:13.488Z,27.36
2023-05-21T12:58:15.032Z,27.14
2023-05-21T13:03:17.150Z,27.25
2023-05-21T13:08:17.921Z,27.97
2023-05-21T13:13:18.671Z,28.55
2023-05-21T13:18:21.791Z,28.76
2023-05-21T13:23:22.668Z,28.83
2023-05-21T13:28:24.615Z,29.15
2023-05-21T13:33:26.806Z,29.26
2023-05-21T13:38:27.597Z,27.40
2023-05-21T13:43:28.317Z,27.56
2023-05-21T13:48:30.368Z,27.57
2023-05-21T13:53:31.133Z,27.72
2023-05-21T13:58:34.558Z,27.09
2023-05-21T14:03:36.637Z,26.62
2023-05-21T14:08:37.823Z,26.57
2023-05-21T14:13:38.556Z,26.86
2023-05-21T14:18:41.083Z,27.83
2023-05-21T14:23:41.864Z,28.08
2023-05-21T14:28:43.060Z,28.38
2023-05-21T14:33:45.092Z,28.12
2023-05-21T14:38:45.998Z,28.27
2023-05-21T14:43:46.719Z,28.07
2023-05-21T14:48:48.922Z,28.25
2023-05-21T14:53:49.665Z,27.58
2023-05-21T14:58:50.386Z,27.89
2023-05-21T15:03:52.605Z,28.02
2023-05-21T15:08:54.451Z,28.03
2023-05-21T15:13:55.179Z,28.06
2023-05-21T15:18:57.308Z,27.72
2023-05-21T15:23:58.060Z,27.98
2023-05-21T15:28:58.762Z,27.56
2023-05-21T15:34:00.901Z,27.81
2023-05-21T15:39:03.433Z,27.97
2023-05-21T15:44:04.375Z,27.53
2023-05-21T15:49:06.455Z,27.37
2023-05-21T15:54:07.560Z,27.10
2023-05-21T15:59:08.508Z,27.30
2023-05-21T16:04:11.532Z,27.51
2023-05-21T16:09:12.437Z,27.29
2023-05-21T16:14:13.565Z,27.85
2023-05-21T16:19:15.630Z,27.76
2023-05-21T16:24:16.527Z,29.17
2023-05-21T16:29:17.427Z,31.04
2023-05-21T16:34:19.436Z,31.78
2023-05-21T16:39:20.172Z,31.97
2023-05-21T16:44:21.144Z,31.66
2023-05-21T16:49:23.196Z,31.51
2023-05-21T16:54:23.975Z,31.77
2023-05-21T16:59:24.815Z,31.12
2023-05-21T17:04:26.819Z,31.46
2023-05-21T17:09:27.511Z,31.29
2023-05-21T17:14:34.534Z,30.07
2023-05-21T17:19:37.576Z,29.63
2023-05-21T17:24:38.435Z,28.17
2023-05-21T17:29:39.164Z,28.04
2023-05-21T17:34:41.251Z,27.35
2023-05-21T17:39:42.225Z,27.08
2023-05-21T17:44:43.088Z,26.77
2023-05-21T17:49:45.156Z,26.13
2023-05-21T17:54:45.991Z,25.32
2023-05-21T17:59:46.759Z,24.88
2023-05-21T18:04:48.812Z,24.66
2023-05-21T18:09:52.280Z,24.12
2023-05-21T18:14:53.040Z,23.73
2023-05-21T18:19:55.054Z,23.42
2023-05-21T18:24:55.906Z,23.22
2023-05-21T18:29:56.955Z,22.89
2023-05-21T18:34:59.306Z,22.60
2023-05-21T18:40:00.116Z,22.31
2023-05-21T18:45:06.904Z,22.10
2023-05-21T18:50:12.775Z,21.85
2023-05-21T18:55:13.737Z,21.62
2023-05-21T19:00:15.104Z,21.51
2023-05-21T19:05:17.618Z,21.32
2023-05-21T19:10:19.692Z,21.22
2023-05-21T19:15:20.680Z,21.17
2023-05-21T19:20:26.646Z,21.08
2023-05-21T19:25:27.512Z,20.96
2023-05-21T19:30:28.427Z,20.93
2023-05-21T19:35:31.166Z,20.89
2023-05-21T19:40:31.890Z,20.88
2023-05-21T19:45:32.713Z,20.73
2023-05-21T19:50:35.298Z,20.73
2023-05-21T19:55:37.507Z,20.71
2023-05-21T20:00:39.292Z,20.59
2023-05-21T20:05:41.424Z,20.42
2023-05-21T20:10:42.284Z,20.31
2023-05-21T20:15:42.992Z,20.19
2023-05-21T20:20:46.673Z,20.05
2023-05-21T20:25:47.425Z,19.91
2023-05-21T20:30:57.514Z,19.73
2023-05-21T20:35:59.836Z,19.62
2023-05-21T20:41:00.944Z,19.52
2023-05-21T20:46:02.251Z,19.45
2023-05-21T20:51:04.580Z,19.29
2023-05-21T20:56:08.542Z,19.19
2023-05-21T21:01:10.619Z,19.15
2023-05-21T21:06:13.035Z,18.98
2023-05-21T21:11:14.209Z,18.84
2023-05-21T21:16:14.936Z,18.74
2023-05-21T21:21:17.157Z,18.61
2023-05-21T21:26:18.746Z,18.53
2023-05-21T21:31:19.970Z,18.40
2023-05-21T21:36:22.012Z,18.37
2023-05-21T21:41:24.118Z,18.22
2023-05-21T21:46:25.587Z,18.11
2023-05-21T21:51:27.659Z,18.00
2023-05-21T21:56:28.372Z,17.96
2023-05-21T22:01:29.521Z,18.00
2023-05-21T22:06:31.885Z,17.82
2023-05-21T22:11:32.576Z,17.64
2023-05-21T22:16:34.255Z,17.62
2023-05-21T22:21:36.463Z,17.49
2023-05-21T22:26:37.147Z,17.46
2023-05-21T22:31:38.140Z,17.38
2023-05-21T22:36:40.708Z,17.30
2023-05-21T22:41:43.134Z,17.22
2023-05-21T22:46:44.489Z,17.15
2023-05-21T22:51:47.081Z,17.04
2023-05-21T22:56:49.321Z,17.00
2023-05-21T23:01:50.146Z,16.78
2023-05-21T23:06:52.353Z,16.70
2023-05-21T23:11:53.209Z,16.62
2023-05-21T23:16:54.495Z,16.67
2023-05-21T23:21:56.857Z,16.50
2023-05-21T23:27:01.976Z,16.54
2023-05-21T23:32:05.123Z,16.58
2023-05-21T23:37:07.481Z,16.51
2023-05-21T23:42:08.670Z,16.42
2023-05-21T23:47:09.336Z,16.35
2023-05-21T23:52:13.072Z,16.28
2023-05-21T23:57:14.205Z,16.11
